Time;durP1;ratioP1;P1;durP2;ratioP2;P2;SDS_P1;SDS_P2;PMS_P1;PMS_P2;Temp;Humidity;BMP_temperature;BMP_pressure;BME280_temperature;BME280_humidity;BME280_pressure;Samples;Min_cycle;Max_cycle;Signal;HPM_P1;HPM_P2
2021/05/20 00:00:10;;;;;;;;;1.25;1.25;;;;;15.65;78.70;100410.25;5120381;27;8827;-78
2021/05/20 00:03:06;;;;;;;;;2.75;2.75;;;;;15.64;78.70;100414.22;5133928;27;8823;-78
2021/05/20 00:06:02;;;;;;;;;1.00;1.00;;;;;15.98;78.57;100411.56;5120185;27;8957;-79
2021/05/20 00:08:57;;;;;;;;;2.00;2.00;;;;;15.73;77.98;100416.75;5133445;27;9674;-83
2021/05/20 00:11:53;;;;;;;;;2.00;2.00;;;;;15.96;78.25;100413.94;5133251;27;8842;-79
2021/05/20 00:14:49;;;;;;;;;2.50;2.50;;;;;16.03;77.92;100422.41;5133418;27;9613;-80
2021/05/20 00:17:45;;;;;;;;;2.25;2.25;;;;;16.02;77.53;100427.16;5133914;27;8966;-82
2021/05/20 00:20:41;;;;;;;;;2.00;2.00;;;;;15.80;77.35;100437.19;5119491;27;8843;-80
2021/05/20 00:23:36;;;;;;;;;2.00;2.00;;;;;15.87;77.25;100432.88;5133729;27;8859;-80
2021/05/20 00:26:35;;;;;;;;;2.00;2.00;;;;;15.74;77.77;100433.09;5133564;27;8827;-81
2021/05/20 00:29:30;;;;;;;;;2.00;2.00;;;;;15.73;78.37;100436.25;5133217;27;8853;-82
2021/05/20 00:32:30;;;;;;;;;3.00;3.00;;;;;15.47;78.89;100434.16;5120061;27;8907;-84
2021/05/20 00:35:25;;;;;;;;;3.75;3.75;;;;;15.48;78.96;100441.34;5108122;27;9576;-82
2021/05/20 00:38:21;;;;;;;;;2.00;2.00;;;;;15.13;79.48;100439.50;5133874;27;8850;-85
2021/05/20 00:41:17;;;;;;;;;3.00;3.00;;;;;15.38;79.56;100436.38;5119599;27;8912;-87
2021/05/20 00:44:12;;;;;;;;;2.00;2.00;;;;;15.30;79.52;100444.59;5119707;27;9701;-82
2021/05/20 00:47:09;;;;;;;;;2.00;2.00;;;;;15.26;80.51;100440.97;5133299;27;8850;-81
2021/05/20 00:50:07;;;;;;;;;2.33;2.33;;;;;15.40;78.90;100445.97;5130280;27;8948;-80
2021/05/20 00:53:03;;;;;;;;;3.33;3.33;;;;;15.58;79.15;100446.31;5113735;27;8945;-79
2021/05/20 00:56:01;;;;;;;;;2.33;2.33;;;;;15.37;79.23;100452.28;5133724;27;8908;-81
2021/05/20 00:58:56;;;;;;;;;3.67;3.67;;;;;15.31;80.07;100459.34;5119966;27;8995;-81
2021/05/20 01:01:52;;;;;;;;;0.33;0.33;;;;;15.38;80.24;100461.47;5132706;27;8927;-82
2021/05/20 01:04:49;;;;;;;;;2.67;2.67;;;;;15.24;79.72;100443.28;5132916;27;9698;-82
2021/05/20 01:07:44;;;;;;;;;4.00;4.00;;;;;15.50;80.98;100452.94;5119389;27;8928;-78
2021/05/20 01:10:40;;;;;;;;;3.00;3.00;;;;;15.71;79.49;100450.53;5132384;27;9015;-84
2021/05/20 01:13:36;;;;;;;;;2.25;2.25;;;;;15.18;79.53;100457.88;5107370;27;9521;-86
2021/05/20 01:16:32;;;;;;;;;3.33;3.33;;;;;15.61;79.94;100455.91;5119385;27;8820;-81
2021/05/20 01:19:28;;;;;;;;;4.00;3.33;;;;;15.12;80.94;100457.38;5119859;27;9160;-85
2021/05/20 01:22:24;;;;;;;;;2.00;2.00;;;;;15.06;81.64;100452.47;5119420;27;9130;-84
2021/05/20 01:25:19;;;;;;;;;2.00;2.00;;;;;15.18;80.30;100455.09;5134034;27;9004;-81
2021/05/20 01:28:17;;;;;;;;;3.00;3.00;;;;;15.23;80.46;100460.38;5119088;27;8888;-82
2021/05/20 01:31:13;;;;;;;;;2.67;2.67;;;;;15.27;80.45;100453.72;5135190;27;9066;-83
2021/05/20 01:34:09;;;;;;;;;1.33;1.33;;;;;15.04;79.89;100457.59;5119962;27;8926;-87
2021/05/20 01:37:08;;;;;;;;;3.00;3.00;;;;;15.15;80.61;100461.41;5119634;27;8999;-84
2021/05/20 01:40:04;;;;;;;;;2.00;2.00;;;;;15.32;79.91;100454.56;5133460;27;9069;-85
2021/05/20 01:43:00;;;;;;;;;3.00;3.00;;;;;15.12;80.35;100465.75;5125287;27;9219;-88
2021/05/20 01:46:00;;;;;;;;;3.00;3.00;;;;;15.15;79.82;100462.22;5119872;27;8983;-85
2021/05/20 01:48:55;;;;;;;;;4.33;4.33;;;;;15.50;80.61;100464.88;5120168;27;9241;-84
2021/05/20 01:51:51;;;;;;;;;4.00;4.00;;;;;15.19;78.87;100471.47;5111098;28;9200;-88
2021/05/20 01:54:48;;;;;;;;;2.00;2.00;;;;;14.95;79.43;100461.41;5113153;28;8985;-85
2021/05/20 01:57:44;;;;;;;;;3.00;3.00;;;;;15.15;79.69;100465.00;5111881;28;8943;-88
2021/05/20 02:00:39;;;;;;;;;5.00;5.00;;;;;15.08;79.40;100461.25;5116657;28;8989;-86
2021/05/20 02:03:36;;;;;;;;;4.00;4.00;;;;;15.28;79.98;100460.09;5116950;28;9259;-84
2021/05/20 02:06:32;;;;;;;;;4.33;4.33;;;;;15.07;79.06;100457.66;5125544;27;9049;-82
2021/05/20 02:09:28;;;;;;;;;5.00;4.00;;;;;15.06;78.93;100461.63;5137904;27;8909;-80
2021/05/20 02:12:24;;;;;;;;;3.67;3.67;;;;;15.12;79.61;100462.16;5137649;27;9058;-84
2021/05/20 02:15:19;;;;;;;;;3.67;3.67;;;;;14.89;79.66;100460.09;5137069;27;9140;-85
2021/05/20 02:18:15;;;;;;;;;5.00;5.00;;;;;14.77;80.17;100454.66;5121470;27;9106;-87
2021/05/20 02:21:10;;;;;;;;;5.67;5.67;;;;;15.00;80.21;100446.38;5118162;28;9462;-81
2021/05/20 02:24:06;;;;;;;;;5.00;5.00;;;;;15.06;79.78;100458.03;5125637;28;9291;-85
2021/05/20 02:27:02;;;;;;;;;4.00;4.00;;;;;15.21;80.03;100457.16;5115474;28;9213;-83
2021/05/20 02:29:58;;;;;;;;;4.00;4.00;;;;;14.46;80.10;100463.91;5119663;27;9167;-82
2021/05/20 02:32:53;;;;;;;;;3.67;3.67;;;;;14.90;80.47;100458.13;5115575;28;9091;-91
2021/05/20 02:35:50;;;;;;;;;5.33;5.33;;;;;15.14;79.25;100474.53;5115893;28;9334;-86
2021/05/20 02:38:46;;;;;;;;;5.00;5.00;;;;;14.80;79.71;100478.16;5116109;28;9331;-85
2021/05/20 02:41:41;;;;;;;;;4.33;4.33;;;;;14.48;80.44;100485.78;5114717;28;10193;-86
2021/05/20 02:44:37;;;;;;;;;5.33;5.33;;;;;14.72;80.57;100483.59;5117958;28;9005;-86
2021/05/20 02:47:33;;;;;;;;;6.00;6.00;;;;;14.79;79.81;100493.25;5131761;27;9235;-85
2021/05/20 02:50:29;;;;;;;;;4.67;4.67;;;;;14.91;78.50;100495.91;5142776;27;9315;-86
2021/05/20 02:53:25;;;;;;;;;5.00;4.67;;;;;14.92;79.39;100495.53;5144290;27;9206;-85
2021/05/20 02:56:21;;;;;;;;;6.67;6.67;;;;;15.03;78.71;100504.16;5158140;27;9415;-84
2021/05/20 02:59:16;;;;;;;;;5.33;5.33;;;;;14.82;79.47;100492.53;5144664;27;9283;-86
2021/05/20 03:02:12;;;;;;;;;4.33;4.33;;;;;15.25;78.95;100497.03;5132979;27;9296;-82
2021/05/20 03:05:08;;;;;;;;;3.00;3.00;;;;;14.72;79.06;100491.94;5145865;27;9143;-86
2021/05/20 03:08:04;;;;;;;;;4.00;4.00;;;;;15.09;78.46;100504.63;5127697;27;9176;-88
2021/05/20 03:11:00;;;;;;;;;3.00;3.00;;;;;15.39;77.93;100508.44;5149870;27;9292;-85
2021/05/20 03:13:57;;;;;;;;;3.00;3.00;;;;;14.83;77.79;100516.44;5127307;27;9233;-85
2021/05/20 03:16:54;;;;;;;;;3.00;3.00;;;;;15.25;78.45;100508.97;5135765;27;9139;-86
2021/05/20 03:19:50;;;;;;;;;4.00;4.00;;;;;14.94;77.76;100509.91;5136993;27;9247;-86
2021/05/20 03:22:46;;;;;;;;;3.67;3.67;;;;;15.20;78.03;100520.41;5135880;27;9334;-87
2021/05/20 03:25:42;;;;;;;;;3.33;3.33;;;;;15.11;77.40;100530.97;5123080;27;9158;-86
2021/05/20 03:28:38;;;;;;;;;3.67;3.67;;;;;15.42;77.77;100526.44;5140060;27;9149;-86
2021/05/20 03:31:35;;;;;;;;;1.00;1.00;;;;;15.16;76.08;100530.66;5125091;27;9196;-85
2021/05/20 03:34:31;;;;;;;;;3.33;3.33;;;;;15.64;76.84;100528.50;5140346;27;8985;-87
2021/05/20 03:37:26;;;;;;;;;4.00;4.00;;;;;15.61;75.89;100526.44;5123637;27;8929;-86
2021/05/20 03:40:25;;;;;;;;;4.00;4.00;;;;;15.24;75.06;100538.00;5139424;27;9048;-84
2021/05/20 03:43:21;;;;;;;;;3.00;3.00;;;;;15.77;75.73;100537.47;5139154;27;9082;-86
2021/05/20 03:46:16;;;;;;;;;3.00;3.00;;;;;15.40;75.04;100537.94;5142577;27;9004;-84
2021/05/20 03:49:13;;;;;;;;;3.33;3.33;;;;;15.85;74.73;100542.81;5142554;27;8871;-84
2021/05/20 03:52:09;;;;;;;;;2.75;2.75;;;;;15.78;74.64;100531.53;5159223;27;8998;-80
2021/05/20 03:55:05;;;;;;;;;3.67;3.00;;;;;15.84;74.15;100548.78;5157577;27;8867;-82
2021/05/20 03:58:02;;;;;;;;;2.00;2.00;;;;;15.77;73.52;100555.03;5157629;27;9020;-85
2021/05/20 04:00:57;;;;;;;;;3.50;3.50;;;;;15.96;73.02;100570.13;5142306;27;8857;-82
2021/05/20 04:03:53;;;;;;;;;2.50;2.50;;;;;15.80;74.86;100559.88;5141416;27;8821;-88
2021/05/20 04:06:48;;;;;;;;;3.00;3.00;;;;;15.69;72.94;100564.41;5157528;27;8828;-85
2021/05/20 04:09:44;;;;;;;;;2.25;2.25;;;;;15.94;73.40;100572.44;5153179;27;8867;-83
2021/05/20 04:12:40;;;;;;;;;1.75;1.75;;;;;15.87;73.06;100577.91;5122131;27;8839;-80
2021/05/20 04:15:35;;;;;;;;;2.75;2.75;;;;;15.89;73.34;100581.13;5119810;27;9564;-82
2021/05/20 04:18:32;;;;;;;;;2.50;2.50;;;;;15.70;72.68;100568.00;5134375;27;8847;-83
2021/05/20 04:21:27;;;;;;;;;2.50;2.50;;;;;16.21;71.06;100573.34;5121956;27;8915;-83
2021/05/20 04:24:24;;;;;;;;;1.75;1.75;;;;;16.22;70.91;100569.38;5122244;27;8864;-82
2021/05/20 04:27:20;;;;;;;;;2.00;2.00;;;;;16.63;71.48;100571.25;5135704;27;8821;-83
2021/05/20 04:30:16;;;;;;;;;0.00;0.00;;;;;16.63;71.60;100574.06;5136598;27;8857;-85
2021/05/20 04:33:14;;;;;;;;;2.00;2.00;;;;;16.72;70.22;100578.63;5154585;27;8829;-83
2021/05/20 04:36:09;;;;;;;;;1.00;1.00;;;;;16.50;70.27;100580.22;5138812;27;8929;-85
2021/05/20 04:39:05;;;;;;;;;1.50;1.50;;;;;16.22;70.59;100572.97;5147630;27;8994;-83
2021/05/20 04:42:01;;;;;;;;;2.25;2.25;;;;;16.51;70.57;100584.63;5133079;27;8862;-83
2021/05/20 04:44:59;;;;;;;;;3.00;3.00;;;;;16.49;69.47;100578.63;5134444;27;8949;-83
2021/05/20 04:47:54;;;;;;;;;3.00;3.00;;;;;16.60;69.44;100577.59;5132991;27;8862;-81
2021/05/20 04:50:56;;;;;;;;;3.00;3.00;;;;;16.68;68.81;100581.31;5133508;27;8827;-83
2021/05/20 04:53:51;;;;;;;;;3.00;3.00;;;;;17.18;69.43;100579.31;5132918;27;8819;-80
2021/05/20 04:56:47;;;;;;;;;2.00;2.00;;;;;17.34;67.76;100596.69;5135574;27;8811;-82
2021/05/20 04:59:42;;;;;;;;;3.25;3.25;;;;;17.53;66.48;100595.72;5120640;27;8831;-83
2021/05/20 05:02:40;;;;;;;;;2.25;2.00;;;;;17.76;66.63;100599.22;5133198;27;8815;-83
2021/05/20 05:05:36;;;;;;;;;3.00;3.00;;;;;17.86;67.21;100586.53;5132081;27;8835;-85
2021/05/20 05:08:31;;;;;;;;;2.75;2.75;;;;;17.86;64.60;100592.13;5121175;27;8815;-80
2021/05/20 05:11:27;;;;;;;;;1.25;1.25;;;;;18.02;65.36;100581.53;5133553;27;8843;-85
2021/05/20 05:14:23;;;;;;;;;2.50;2.50;;;;;18.01;65.10;100590.28;5134470;27;8815;-83
2021/05/20 05:17:20;;;;;;;;;2.25;2.25;;;;;17.39;64.66;100585.16;5120094;27;8957;-80
2021/05/20 05:20:15;;;;;;;;;1.00;1.00;;;;;17.86;65.57;100591.31;5135906;27;8901;-85
2021/05/20 05:23:11;;;;;;;;;3.00;3.00;;;;;17.91;64.14;100594.59;5120339;27;8827;-81
2021/05/20 05:26:07;;;;;;;;;3.00;3.00;;;;;17.94;64.56;100588.25;5120237;27;8826;-82
2021/05/20 05:29:03;;;;;;;;;3.00;3.00;;;;;18.05;63.38;100586.34;5133434;27;8823;-82
2021/05/20 05:32:00;;;;;;;;;2.75;2.75;;;;;17.84;63.27;100600.09;5133178;27;8835;-79
2021/05/20 05:34:58;;;;;;;;;3.00;3.00;;;;;18.00;62.66;100597.88;5122772;27;9028;-78
2021/05/20 05:37:53;;;;;;;;;2.75;2.75;;;;;17.90;63.34;100592.19;5138170;27;8851;-82
2021/05/20 05:40:49;;;;;;;;;2.00;2.00;;;;;18.25;62.98;100588.97;5136921;27;8827;-81
2021/05/20 05:43:45;;;;;;;;;1.25;1.25;;;;;18.55;61.50;100606.41;5137201;27;8847;-86
2021/05/20 05:46:40;;;;;;;;;2.00;2.00;;;;;18.03;62.29;100613.13;5136314;27;8865;-80
2021/05/20 05:49:48;;;;;;;;;1.00;1.00;;;;;18.00;62.43;100614.69;5122852;27;8839;-84
2021/05/20 05:52:44;;;;;;;;;3.00;3.00;;;;;18.18;62.52;100603.69;5124673;27;8900;-84
2021/05/20 05:55:40;;;;;;;;;3.50;3.50;;;;;18.39;61.68;100605.88;5126081;27;8827;-82
2021/05/20 05:58:37;;;;;;;;;3.00;2.75;;;;;18.45;61.28;100604.31;5125381;27;8855;-82
2021/05/20 06:01:33;;;;;;;;;3.25;3.25;;;;;18.39;60.43;100622.66;5138172;27;8904;-78
2021/05/20 06:04:30;;;;;;;;;1.50;1.50;;;;;18.22;61.28;100609.31;5141181;27;8841;-81
2021/05/20 06:07:26;;;;;;;;;3.50;3.50;;;;;18.45;61.61;100606.31;5141238;27;8900;-81
2021/05/20 06:10:23;;;;;;;;;3.25;3.25;;;;;18.72;60.54;100607.00;5136546;27;8957;-84
2021/05/20 06:13:18;;;;;;;;;2.50;2.50;;;;;18.91;61.61;100608.72;5123482;27;8815;-80
2021/05/20 06:16:14;;;;;;;;;4.00;4.00;;;;;18.69;60.23;100613.34;5137003;27;8847;-83
2021/05/20 06:19:11;;;;;;;;;5.00;5.00;;;;;19.17;60.17;100611.31;5137064;27;8847;-80
2021/05/20 06:22:07;;;;;;;;;2.75;2.75;;;;;19.12;57.94;100626.50;5123301;27;8835;-81
2021/05/20 06:25:15;;;;;;;;;2.00;2.00;;;;;18.84;59.40;100624.28;5136068;27;8869;-80
2021/05/20 06:28:11;;;;;;;;;3.50;3.50;;;;;19.19;59.49;100617.31;5136779;27;8849;-82
2021/05/20 06:31:09;;;;;;;;;4.50;3.00;;;;;19.43;58.41;100618.66;5136957;27;8851;-84
2021/05/20 06:34:04;;;;;;;;;4.00;4.00;;;;;19.40;56.87;100619.47;5122363;27;8827;-83
2021/05/20 06:37:02;;;;;;;;;4.25;4.25;;;;;19.53;57.93;100620.69;5136322;27;8819;-80
2021/05/20 06:39:58;;;;;;;;;2.00;2.00;;;;;19.65;57.63;100630.81;5123479;27;8896;-87
2021/05/20 06:42:53;;;;;;;;;3.00;3.00;;;;;19.88;57.16;100627.69;5123381;27;8838;-81
2021/05/20 06:45:49;;;;;;;;;2.00;2.00;;;;;20.04;55.61;100630.16;5137408;27;8823;-84
2021/05/20 06:48:44;;;;;;;;;4.00;4.00;;;;;20.58;56.28;100626.25;5137587;27;8823;-82
2021/05/20 06:51:40;;;;;;;;;3.00;3.00;;;;;20.44;55.60;100626.25;5122439;27;8899;-85
2021/05/20 06:54:36;;;;;;;;;1.25;1.25;;;;;20.78;54.40;100619.03;5136644;27;9695;-83
2021/05/20 06:59:56;;;;;;;;;2.50;2.50;;;;;20.50;54.42;100624.66;5124005;27;8980;-82
2021/05/20 07:00:47;;;;;;;;;3.00;3.00;;;;;21.01;54.17;100617.78;5138519;27;8827;-84
2021/05/20 07:03:44;;;;;;;;;4.00;4.00;;;;;20.22;53.89;100622.56;5123096;27;8827;-79
2021/05/20 07:06:40;;;;;;;;;1.25;1.25;;;;;20.78;53.70;100607.81;5135286;27;8835;-78
2021/05/20 07:09:38;;;;;;;;;3.25;3.00;;;;;21.33;54.22;100615.78;5135220;27;8938;-78
2021/05/20 07:12:34;;;;;;;;;3.00;3.00;;;;;20.73;51.47;100616.63;5124198;27;8827;-78
2021/05/20 07:15:30;;;;;;;;;1.25;1.25;;;;;21.00;52.46;100614.19;5121218;27;8853;-79
2021/05/20 07:18:26;;;;;;;;;3.00;3.00;;;;;21.02;52.41;100634.28;5121457;27;8823;-78
2021/05/20 07:21:22;;;;;;;;;2.25;2.25;;;;;21.16;55.50;100641.06;5137761;27;8823;-79
2021/05/20 07:24:19;;;;;;;;;2.75;2.75;;;;;21.30;55.33;100643.88;5136300;27;8815;-80
2021/05/20 07:27:17;;;;;;;;;1.00;1.00;;;;;21.74;54.41;100637.72;5141214;27;8941;-79
2021/05/20 07:30:19;;;;;;;;;1.75;1.75;;;;;21.84;54.48;100639.69;5129515;27;8831;-79
2021/05/20 07:33:15;;;;;;;;;3.00;3.00;;;;;21.75;53.17;100633.69;5145030;27;8914;-79
2021/05/20 07:36:10;;;;;;;;;3.00;3.00;;;;;21.89;52.15;100638.47;5124639;27;8843;-79
2021/05/20 07:39:08;;;;;;;;;1.60;1.60;;;;;22.04;52.78;100631.56;5136431;27;8839;-80
2021/05/20 07:42:04;;;;;;;;;3.00;3.00;;;;;22.24;51.10;100631.03;5137199;27;8822;-81
2021/05/20 07:45:00;;;;;;;;;3.00;3.00;;;;;21.96;51.11;100634.81;5141786;27;8827;-79
2021/05/20 07:47:55;;;;;;;;;2.25;2.25;;;;;21.83;52.68;100635.25;5155008;27;8975;-80
2021/05/20 07:50:52;;;;;;;;;4.00;4.00;;;;;22.24;51.06;100639.50;5154023;27;8852;-79
2021/05/20 07:53:50;;;;;;;;;8.75;8.75;;;;;22.38;51.33;100634.56;5143900;27;8825;-82
2021/05/20 07:56:46;;;;;;;;;4.25;4.25;;;;;22.26;48.77;100631.47;5137176;27;8823;-83
2021/05/20 07:59:41;;;;;;;;;4.00;4.00;;;;;22.68;49.71;100641.59;5154617;27;8873;-85
2021/05/20 08:03:00;;;;;;;;;2.60;2.60;;;;;22.73;50.11;100638.34;5156578;27;8872;-83
2021/05/20 08:06:18;;;;;;;;;4.00;4.00;;;;;22.75;48.61;100630.28;5139386;27;8843;-83
2021/05/20 08:12:10;;;;;;;;;2.25;2.25;;;;;21.30;51.20;100646.69;5142002;27;9677;-83
2021/05/20 08:15:07;;;;;;;;;2.00;2.00;;;;;22.14;51.43;100636.34;5141179;27;8865;-79
2021/05/20 08:18:03;;;;;;;;;3.40;3.40;;;;;22.57;48.94;100646.53;5153813;27;8849;-79
2021/05/20 08:21:01;;;;;;;;;2.60;2.60;;;;;22.62;48.39;100640.44;5144302;27;8854;-83
2021/05/20 08:23:57;;;;;;;;;0.20;0.20;;;;;22.52;47.44;100661.84;5134917;27;8842;-81
2021/05/20 08:26:52;;;;;;;;;2.60;2.60;;;;;22.73;47.39;100646.81;5133856;27;8836;-85
2021/05/20 08:29:51;;;;;;;;;0.80;0.80;;;;;22.94;46.90;100652.31;5118511;27;8839;-79
2021/05/20 08:32:48;;;;;;;;;2.80;2.80;;;;;23.09;46.54;100652.97;5133753;27;8850;-83
2021/05/20 08:35:44;;;;;;;;;1.80;1.80;;;;;22.91;47.03;100646.69;5133782;27;8844;-79
2021/05/20 08:38:39;;;;;;;;;1.20;1.20;;;;;22.86;45.06;100659.22;5135802;27;8851;-81
2021/05/20 08:41:36;;;;;;;;;1.40;1.40;;;;;23.34;44.18;100658.38;5136369;27;9552;-79
2021/05/20 08:44:32;;;;;;;;;1.80;1.80;;;;;23.07;44.02;100657.41;5157810;27;8927;-79
2021/05/20 08:47:29;;;;;;;;;2.00;2.00;;;;;23.25;44.21;100675.78;5137067;27;8869;-80
2021/05/20 08:50:30;;;;;;;;;3.20;3.20;;;;;23.12;42.57;100665.44;5153284;27;8849;-78
2021/05/20 08:53:25;;;;;;;;;1.00;1.00;;;;;23.25;43.03;100667.31;5101256;28;8866;-78
2021/05/20 08:56:21;;;;;;;;;2.40;2.40;;;;;23.42;42.00;100662.72;5093248;28;8841;-77
2021/05/20 08:59:17;;;;;;;;;4.00;4.00;;;;;23.11;43.59;100670.28;5094038;28;8826;-80
2021/05/20 09:02:42;;;;;;;;;2.40;2.40;;;;;22.38;44.20;100674.03;5093474;28;8879;-80
2021/05/20 09:05:39;;;;;;;;;2.00;2.00;;;;;22.74;43.42;100670.97;5093406;28;8829;-79
2021/05/20 09:08:40;;;;;;;;;4.20;4.20;;;;;23.17;43.09;100677.06;5097684;28;8853;-78
2021/05/20 09:11:37;;;;;;;;;4.00;4.00;;;;;23.37;43.69;100688.56;5096947;28;8845;-78
2021/05/20 09:14:42;;;;;;;;;2.00;2.00;;;;;23.07;43.58;100675.13;5097152;28;8837;-78
2021/05/20 09:17:38;;;;;;;;;2.20;2.20;;;;;23.69;44.14;100668.47;5096716;28;8837;-78
2021/05/20 09:20:36;;;;;;;;;3.60;3.60;;;;;24.29;42.41;100668.91;5097557;28;8837;-80
2021/05/20 09:23:31;;;;;;;;;3.80;3.40;;;;;23.09;43.99;100678.38;5098110;28;8932;-83
2021/05/20 09:26:37;;;;;;;;;2.80;2.80;;;;;23.32;42.79;100685.41;5096172;28;8837;-83
2021/05/20 09:29:33;;;;;;;;;2.00;2.00;;;;;23.31;44.40;100673.31;5100664;28;8936;-81
2021/05/20 09:32:34;;;;;;;;;4.60;4.20;;;;;23.43;44.19;100675.59;5103564;28;8841;-77
2021/05/20 09:35:32;;;;;;;;;3.20;3.20;;;;;23.45;44.48;100669.53;5097305;28;8964;-77
2021/05/20 09:38:28;;;;;;;;;3.00;3.00;;;;;23.68;43.19;100681.00;5095314;28;8919;-79
2021/05/20 09:41:25;;;;;;;;;2.00;2.00;;;;;23.11;43.56;100680.75;5096010;28;8837;-82
2021/05/20 09:44:32;;;;;;;;;2.80;2.80;;;;;24.10;42.26;100671.19;5094890;28;9013;-79
2021/05/20 09:47:30;;;;;;;;;2.80;2.80;;;;;24.19;40.18;100670.66;5097471;28;8834;-80
2021/05/20 09:50:26;;;;;;;;;3.40;3.40;;;;;24.41;40.44;100668.38;5097352;28;8853;-82
2021/05/20 09:53:24;;;;;;;;;2.00;2.00;;;;;24.35;39.96;100667.25;5118316;28;8862;-82
2021/05/20 09:56:43;;;;;;;;;2.00;2.00;;;;;24.08;41.45;100658.72;5119125;28;8858;-82
2021/05/20 09:59:38;;;;;;;;;1.00;1.00;;;;;24.61;40.72;100660.81;5117803;28;8827;-82
2021/05/20 10:02:39;;;;;;;;;2.20;2.20;;;;;25.33;39.59;100646.25;5118013;28;8822;-79
2021/05/20 10:05:40;;;;;;;;;2.60;2.60;;;;;25.12;39.47;100660.78;5121311;28;8892;-81
2021/05/20 10:08:39;;;;;;;;;3.00;3.00;;;;;25.30;38.97;100669.72;5121205;28;8874;-83
2021/05/20 10:11:36;;;;;;;;;3.00;3.00;;;;;24.63;38.75;100664.00;5110701;28;8873;-82
2021/05/20 10:14:33;;;;;;;;;2.40;2.40;;;;;25.26;37.60;100656.91;5116462;28;8830;-80
2021/05/20 10:17:30;;;;;;;;;2.20;2.20;;;;;25.59;36.68;100655.03;5117041;28;9660;-82
2021/05/20 10:20:25;;;;;;;;;2.20;2.20;;;;;25.37;35.90;100652.63;5117209;28;8826;-79
2021/05/20 10:23:23;;;;;;;;;2.80;2.80;;;;;25.55;36.33;100660.00;5117429;28;8823;-78
2021/05/20 10:26:22;;;;;;;;;1.60;1.60;;;;;25.67;36.22;100659.31;5117088;28;8850;-84
2021/05/20 10:29:19;;;;;;;;;3.20;3.20;;;;;25.38;37.00;100661.91;5122063;27;8878;-80
2021/05/20 10:32:17;;;;;;;;;2.60;2.60;;;;;25.16;36.78;100670.81;5134967;27;8828;-81
2021/05/20 12:31:32;;;;;;;;;2.80;2.80;;;;;25.95;42.10;100610.59;5129303;27;8795;-79
2021/05/20 12:34:28;;;;;;;;;3.60;3.60;;;;;26.07;42.15;100609.16;5153379;27;8829;-78
2021/05/20 12:37:24;;;;;;;;;2.80;2.80;;;;;25.90;41.33;100611.13;5154018;27;8970;-79
2021/05/20 12:40:49;;;;;;;;;3.60;3.60;;;;;26.22;42.02;100615.25;5153968;27;8845;-79
2021/05/20 12:43:47;;;;;;;;;3.60;3.60;;;;;25.85;42.54;100613.69;5154032;27;9040;-77
2021/05/20 12:46:44;;;;;;;;;6.00;6.00;;;;;25.59;42.37;100623.88;5138360;27;8823;-80
2021/05/20 12:49:40;;;;;;;;;4.80;4.80;;;;;25.70;42.89;100613.94;5130432;27;9733;-78
2021/05/20 12:52:59;;;;;;;;;4.20;4.20;;;;;25.60;43.71;100614.94;5153619;27;8859;-79
2021/05/20 12:56:32;;;;;;;;;2.20;2.20;;;;;25.23;45.35;100607.63;5133915;27;8792;-78
2021/05/20 12:59:42;;;;;;;;;5.20;5.20;;;;;25.45;44.62;100611.63;5119533;27;8843;-79
2021/05/20 13:02:38;;;;;;;;;3.00;3.00;;;;;25.20;44.09;100614.94;5119056;27;8915;-78
2021/05/20 13:05:44;;;;;;;;;4.40;4.40;;;;;25.37;44.14;100603.69;5119225;27;8869;-78
2021/05/20 13:08:40;;;;;;;;;5.20;5.20;;;;;25.15;43.80;100598.47;5153373;27;8813;-78
2021/05/20 13:11:40;;;;;;;;;11.20;11.20;;;;;25.24;43.94;100595.06;5139754;27;8889;-78
2021/05/20 13:14:39;;;;;;;;;3.00;3.00;;;;;25.34;43.33;100590.44;5153735;27;8912;-78
2021/05/20 13:23:41;;;;;;;;;3.60;3.60;;;;;25.83;43.33;100568.78;5147220;27;8839;-77
2021/05/20 13:26:39;;;;;;;;;3.40;3.40;;;;;25.41;44.18;100562.78;5133291;27;8808;-78
2021/05/20 13:29:42;;;;;;;;;4.60;4.60;;;;;25.34;44.03;100564.97;5127202;27;8833;-78
2021/05/20 13:32:50;;;;;;;;;5.40;5.40;;;;;25.68;43.85;100562.59;5153161;27;8805;-80
2021/05/20 13:35:46;;;;;;;;;3.80;3.80;;;;;25.64;43.67;100558.25;5131873;27;8851;-80
2021/05/20 13:38:45;;;;;;;;;3.20;3.20;;;;;25.95;42.26;100559.59;5132588;27;8830;-78
2021/05/20 13:41:41;;;;;;;;;2.80;2.80;;;;;26.70;41.60;100554.97;5132693;27;9610;-79
2021/05/20 13:44:57;;;;;;;;;4.60;4.60;;;;;26.87;40.32;100561.41;5119624;27;8815;-81
2021/05/20 13:47:54;;;;;;;;;2.20;2.20;;;;;27.26;39.54;100557.53;5132743;27;8903;-81
2021/05/20 13:50:50;;;;;;;;;2.20;2.20;;;;;27.64;38.89;100557.63;5118929;27;9598;-81
2021/05/20 13:53:49;;;;;;;;;3.60;3.60;;;;;27.80;38.63;100550.28;5132684;27;9014;-80
2021/05/20 13:56:45;;;;;;;;;3.80;3.80;;;;;27.84;37.94;100551.78;5123492;27;8823;-79
2021/05/20 13:59:43;;;;;;;;;3.00;3.00;;;;;27.89;37.75;100564.63;5137088;27;8839;-79
2021/05/20 14:02:38;;;;;;;;;2.80;2.80;;;;;28.10;38.08;100557.47;5138540;27;8835;-79
2021/05/20 14:05:35;;;;;;;;;2.80;2.80;;;;;28.43;35.65;100552.34;5141072;27;8833;-79
2021/05/20 14:08:32;;;;;;;;;2.40;2.40;;;;;27.91;36.13;100559.25;5150877;27;8853;-76
2021/05/20 14:11:28;;;;;;;;;5.60;4.00;;;;;27.58;37.05;100567.94;5156967;27;8817;-81
2021/05/20 14:14:24;;;;;;;;;4.00;4.00;;;;;27.43;36.21;100569.59;5139234;27;8955;-79
2021/05/20 14:17:21;;;;;;;;;4.00;4.00;;;;;27.01;37.75;100563.88;5124143;27;8899;-78
2021/05/20 14:20:20;;;;;;;;;4.00;4.00;;;;;27.02;36.92;100559.00;5134164;27;8827;-77
2021/05/20 14:23:18;;;;;;;;;2.60;2.60;;;;;27.20;36.08;100553.63;5124600;27;8939;-78
2021/05/20 14:25:50;;;;;;;;;2.00;2.00;;;;;27.05;36.19;100553.22;5123967;27;8829;-80
2021/05/20 14:28:21;;;;;;;;;2.20;2.20;;;;;26.82;36.36;100553.44;5140408;27;8848;-80
2021/05/20 14:31:17;;;;;;;;;4.80;4.80;;;;;26.69;37.09;100550.56;5136504;27;8951;-80
2021/05/20 14:34:18;;;;;;;;;2.00;2.00;;;;;26.57;37.31;100548.41;5141676;27;9057;-80
2021/05/20 14:37:14;;;;;;;;;2.00;2.00;;;;;26.36;38.28;100544.06;5150239;27;8850;-80
2021/05/20 14:40:11;;;;;;;;;3.80;3.80;;;;;26.02;37.65;100539.63;5145708;27;8868;-82
2021/05/20 14:43:10;;;;;;;;;2.20;2.20;;;;;25.98;37.06;100541.72;5146065;27;8821;-81
2021/05/20 14:46:08;;;;;;;;;3.00;3.00;;;;;26.05;36.86;100543.59;5123302;27;8835;-82
2021/05/20 14:49:12;;;;;;;;;1.60;1.60;;;;;25.91;36.65;100532.59;5153331;27;8847;-81
2021/05/20 14:52:34;;;;;;;;;7.80;6.00;;;;;25.84;37.32;100529.91;5135577;27;9564;-80
2021/05/20 15:05:14;;;;;;;;;5.60;5.60;;;;;25.39;40.59;100533.31;5123716;27;8849;-81
2021/05/20 15:08:10;;;;;;;;;3.80;3.80;;;;;25.16;38.99;100522.88;5112999;27;8855;-82
2021/05/20 15:11:17;;;;;;;;;4.20;4.20;;;;;25.05;39.38;100517.41;5155493;27;9549;-83
2021/05/20 15:14:35;;;;;;;;;2.20;2.20;;;;;25.03;39.30;100521.88;5146833;27;8857;-83
2021/05/20 15:17:33;;;;;;;;;16.00;13.20;;;;;24.78;39.67;100525.19;5137762;27;8862;-81
2021/05/20 15:20:30;;;;;;;;;6.80;6.00;;;;;24.70;39.62;100509.59;5137198;27;8850;-82
2021/05/20 15:23:25;;;;;;;;;35.00;20.80;;;;;24.68;38.90;100507.97;5121180;27;8958;-81
2021/05/20 15:26:21;;;;;;;;;4.80;4.80;;;;;24.59;38.11;100512.59;5140067;27;8851;-80
2021/05/20 15:29:26;;;;;;;;;4.20;4.20;;;;;24.54;38.05;100502.59;5145593;27;8818;-80
2021/05/20 15:32:27;;;;;;;;;4.80;4.80;;;;;24.47;38.30;100499.09;5136407;27;8999;-80
2021/05/20 15:35:23;;;;;;;;;12.40;11.40;;;;;24.33;37.30;100495.28;5127099;27;9684;-80
2021/05/20 15:38:18;;;;;;;;;2.00;2.00;;;;;24.18;36.40;100499.56;5154855;27;8825;-82
2021/05/20 15:41:15;;;;;;;;;1.80;1.80;;;;;24.08;37.12;100498.50;5145243;27;9700;-78
2021/05/20 15:44:14;;;;;;;;;1.00;1.00;;;;;23.99;36.98;100497.44;5126690;27;8835;-81
2021/05/20 15:47:24;;;;;;;;;3.00;3.00;;;;;23.93;37.37;100493.50;5131595;27;8813;-80
2021/05/20 15:50:24;;;;;;;;;22.75;22.75;;;;;23.95;37.65;100502.34;5139618;27;8827;-82
2021/05/20 15:53:21;;;;;;;;;4.80;4.80;;;;;24.14;37.82;100504.44;5125346;27;8827;-81
2021/05/20 15:56:16;;;;;;;;;4.00;4.00;;;;;24.11;37.79;100500.47;5127860;27;8869;-81
2021/05/20 15:59:19;;;;;;;;;2.00;2.00;;;;;24.14;38.29;100498.81;5130148;27;8854;-82
2021/05/20 16:02:18;;;;;;;;;5.60;5.60;;;;;24.16;38.08;100489.91;5138896;27;9614;-83
2021/05/20 16:05:20;;;;;;;;;2.80;2.80;;;;;24.15;38.69;100497.56;5118594;27;8828;-81
2021/05/20 16:14:34;;;;;;;;;5.80;5.40;;;;;24.18;37.94;100488.25;5154995;27;8861;-80
2021/05/20 16:17:33;;;;;;;;;4.00;4.00;;;;;24.14;37.76;100495.97;5153115;27;8841;-81